Time;durP1;ratioP1;P1;durP2;ratioP2;P2;SDS_P1;SDS_P2;PMS_P1;PMS_P2;Temp;Humidity;BMP_temperature;BMP_pressure;BME280_temperature;BME280_humidity;BME280_pressure;Samples;Min_cycle;Max_cycle;Signal;HPM_P1;HPM_P2
2021/12/17 00:04:53;;;;;;;5.93;5.53;;;1.30;99.90;;;;;;5085298;28;20660;-55
2021/12/17 00:07:35;;;;;;;6.40;5.72;;;1.30;99.90;;;;;;5085170;28;21111;-55
2021/12/17 00:10:19;;;;;;;6.90;6.35;;;1.10;99.90;;;;;;5147554;27;20579;-55
2021/12/17 00:12:59;;;;;;;5.65;5.25;;;0.80;99.90;;;;;;5086028;28;20671;-55
2021/12/17 00:15:40;;;;;;;6.10;5.70;;;0.60;99.90;;;;;;5149553;27;20885;-55
2021/12/17 00:18:25;;;;;;;5.80;5.30;;;0.40;99.90;;;;;;5148104;27;20605;-54
2021/12/17 00:51:21;;;;;;;7.53;6.93;;;-0.40;99.90;;;;;;5147220;27;21047;-55
2021/12/17 00:54:06;;;;;;;7.60;6.95;;;-0.30;99.90;;;;;;5147537;27;20885;-55
2021/12/17 00:56:47;;;;;;;9.55;6.57;;;-0.40;99.90;;;;;;5086112;28;20597;-55
2021/12/17 00:59:27;;;;;;;5.65;5.25;;;-0.50;99.90;;;;;;5086195;28;20663;-55
2021/12/17 01:02:10;;;;;;;7.22;6.72;;;-0.60;99.90;;;;;;5106384;27;20858;-55
2021/12/17 01:04:52;;;;;;;7.10;6.50;;;-0.60;99.90;;;;;;5146391;27;20669;-55
2021/12/17 01:07:34;;;;;;;7.82;7.13;;;-0.40;99.90;;;;;;5106189;27;20549;-55
2021/12/17 01:10:20;;;;;;;6.03;5.55;;;-0.40;99.90;;;;;;5147491;27;20534;-56
2021/12/17 01:13:00;;;;;;;6.80;6.18;;;-0.40;99.90;;;;;;5163589;27;21180;-55
2021/12/17 01:15:42;;;;;;;10.85;6.38;;;-0.60;99.90;;;;;;5085578;28;20687;-55
2021/12/17 01:18:25;;;;;;;21.40;6.32;;;-0.80;99.90;;;;;;5106331;27;20953;-55
2021/12/17 01:21:22;;;;;;;70.32;7.20;;;-0.80;99.90;;;;;;5086235;28;20660;-55
2021/12/17 01:24:14;;;;;;;35.47;6.90;;;-0.60;99.90;;;;;;5106315;27;20553;-55
2021/12/17 01:35:46;;;;;;;37.22;4.65;;;-0.50;99.90;;;;;;5085965;28;20562;-55
2021/12/17 01:44:31;;;;;;;56.00;6.30;;;-1.20;99.90;;;;;;5146982;27;20661;-55
2021/12/17 01:47:13;;;;;;;38.38;5.22;;;-1.10;99.90;;;;;;5085967;28;20559;-55
2021/12/17 01:56:00;;;;;;;22.65;4.60;;;-0.70;99.90;;;;;;5086125;27;20543;-55
2021/12/17 02:01:37;;;;;;;11.70;4.13;;;-1.10;99.90;;;;;;5106457;27;21151;-55
2021/12/17 02:04:17;;;;;;;38.65;4.28;;;-1.20;99.90;;;;;;5085614;28;20554;-56
2021/12/17 02:06:58;;;;;;;21.95;3.75;;;-1.20;99.90;;;;;;5085898;27;20552;-56
2021/12/17 02:12:45;;;;;;;32.28;3.55;;;-1.10;99.90;;;;;;5086108;28;20659;-55
2021/12/17 02:21:48;;;;;;;12.57;3.33;;;-1.20;99.90;;;;;;5147018;27;20653;-55
2021/12/17 02:30:42;;;;;;;21.05;3.17;;;-1.40;99.90;;;;;;5086087;28;20683;-55
2021/12/17 02:33:22;;;;;;;13.70;3.08;;;-1.50;99.90;;;;;;5085460;27;20540;-54
2021/12/17 02:36:02;;;;;;;3.40;3.20;;;-1.60;99.90;;;;;;5085614;28;20668;-55
2021/12/17 02:38:42;;;;;;;3.97;3.28;;;-1.50;99.90;;;;;;5085702;28;20672;-55
2021/12/17 02:47:13;;;;;;;5.38;3.80;;;-0.90;99.90;;;;;;5106522;27;20681;-55
2021/12/17 02:49:54;;;;;;;5.40;3.50;;;-0.90;99.90;;;;;;5086266;27;20548;-55
2021/12/17 02:52:36;;;;;;;14.55;4.15;;;-0.90;99.90;;;;;;5086177;27;20543;-55
2021/12/17 02:55:16;;;;;;;12.50;3.63;;;-0.70;99.90;;;;;;5085965;27;20562;-55
2021/12/17 02:57:56;;;;;;;21.88;3.88;;;-0.60;99.90;;;;;;5086248;27;20543;-56
2021/12/17 03:00:38;;;;;;;9.30;3.50;;;-0.50;99.90;;;;;;5126872;27;20747;-56
2021/12/17 03:03:19;;;;;;;13.48;3.88;;;-0.40;99.90;;;;;;5105633;27;20665;-55
2021/12/17 03:05:59;;;;;;;28.55;3.85;;;-0.30;99.90;;;;;;5085554;28;20675;-55
2021/12/17 03:08:38;;;;;;;26.67;3.83;;;-0.30;99.90;;;;;;5126717;27;20532;-55
2021/12/17 03:11:18;;;;;;;12.02;3.35;;;-0.30;99.90;;;;;;5148987;27;20546;-55
2021/12/17 03:13:58;;;;;;;13.63;3.42;;;-0.20;99.90;;;;;;5086127;27;20918;-55
2021/12/17 03:16:42;;;;;;;21.83;4.05;;;-0.20;99.90;;;;;;5147529;27;20543;-55
2021/12/17 03:23:25;;;;;;;34.20;6.20;;;-0.10;99.90;;;;;;5127072;27;20528;-55
2021/12/17 03:25:37;;;;;;;106.13;6.88;;;0.00;99.90;;;;;;5126617;27;20548;-55
2021/12/17 03:28:17;;;;;;;123.88;7.20;;;0.10;99.90;;;;;;5146765;27;20657;-55
2021/12/17 03:30:57;;;;;;;81.53;6.90;;;0.10;99.90;;;;;;5126684;27;21049;-55
2021/12/17 03:33:42;;;;;;;90.38;6.97;;;0.10;99.90;;;;;;5106025;27;20674;-55
2021/12/17 03:36:22;;;;;;;52.22;5.15;;;0.20;99.90;;;;;;5105827;27;20958;-55
2021/12/17 03:39:02;;;;;;;50.05;4.10;;;0.20;99.90;;;;;;5126600;27;21006;-55
2021/12/17 03:41:49;;;;;;;13.75;2.45;;;0.20;99.90;;;;;;5146432;27;20539;-55
2021/12/17 03:44:30;;;;;;;26.75;3.22;;;0.10;99.90;;;;;;5085561;28;20684;-55
2021/12/17 03:47:10;;;;;;;20.58;2.65;;;0.00;99.90;;;;;;5085889;27;20557;-55
2021/12/17 03:49:52;;;;;;;18.45;3.10;;;0.00;99.90;;;;;;5106280;27;20654;-55
2021/12/17 03:52:31;;;;;;;15.00;3.53;;;-0.10;99.90;;;;;;5086175;28;20560;-55
2021/12/17 03:55:11;;;;;;;34.50;5.03;;;-0.10;99.90;;;;;;5085695;27;20553;-55
2021/12/17 03:57:50;;;;;;;42.72;5.15;;;-0.10;99.90;;;;;;5127207;27;20540;-55
2021/12/17 04:00:31;;;;;;;32.72;5.22;;;-0.10;99.90;;;;;;5085527;28;20671;-55
2021/12/17 04:03:10;;;;;;;39.28;3.95;;;-0.20;99.90;;;;;;5146874;27;21194;-55
2021/12/17 04:05:51;;;;;;;48.70;4.32;;;-0.20;99.90;;;;;;5085450;28;20703;-55
2021/12/17 04:08:30;;;;;;;64.30;4.45;;;-0.20;99.90;;;;;;5106199;27;21078;-55
2021/12/17 04:11:17;;;;;;;34.47;3.20;;;-0.20;99.90;;;;;;5085674;27;20547;-55
2021/12/17 04:13:57;;;;;;;48.50;3.95;;;-0.10;99.90;;;;;;5148113;27;20537;-54
2021/12/17 04:16:37;;;;;;;29.08;3.80;;;-0.10;99.90;;;;;;5086088;28;21033;-55
2021/12/17 04:19:17;;;;;;;83.47;7.90;;;-0.10;99.90;;;;;;5085910;28;20667;-55
2021/12/17 04:21:57;;;;;;;32.45;6.47;;;0.00;99.90;;;;;;5085985;27;21144;-55
2021/12/17 04:24:37;;;;;;;79.63;8.40;;;0.00;99.90;;;;;;5166353;27;20544;-55
2021/12/17 04:27:17;;;;;;;58.17;7.95;;;0.10;99.90;;;;;;5085540;28;20675;-55
2021/12/17 04:29:57;;;;;;;59.40;7.55;;;0.10;99.90;;;;;;5085754;27;20573;-55
2021/12/17 04:32:36;;;;;;;30.38;6.07;;;0.20;99.90;;;;;;5126760;27;20532;-55
2021/12/17 04:35:16;;;;;;;51.03;6.18;;;0.20;99.90;;;;;;5084962;27;20656;-54
2021/12/17 04:37:56;;;;;;;49.25;5.30;;;0.20;99.90;;;;;;5086009;28;20672;-55
2021/12/17 04:40:37;;;;;;;44.65;4.22;;;0.20;99.90;;;;;;5149161;27;20664;-55
2021/12/17 04:43:28;;;;;;;37.55;3.75;;;0.30;99.90;;;;;;5085923;27;21068;-55
2021/12/17 04:46:21;;;;;;;39.15;3.47;;;0.30;99.90;;;;;;5085821;28;20608;-55
2021/12/17 04:57:56;;;;;;;38.47;3.85;;;0.30;99.90;;;;;;5147768;27;20665;-55
2021/12/17 05:00:36;;;;;;;16.58;2.55;;;0.30;99.90;;;;;;5126666;27;21073;-55
2021/12/17 05:03:16;;;;;;;45.13;3.65;;;0.30;99.90;;;;;;5146992;27;20534;-55
2021/12/17 05:05:56;;;;;;;66.15;3.70;;;0.30;99.90;;;;;;5147084;27;20669;-55
2021/12/17 05:08:36;;;;;;;47.67;4.30;;;0.30;99.90;;;;;;5106509;27;20530;-55
2021/12/17 05:11:24;;;;;;;30.60;3.13;;;0.30;99.90;;;;;;5085980;27;20544;-55
2021/12/17 05:20:23;;;;;;;38.67;3.65;;;0.30;99.90;;;;;;5126937;27;20528;-55
2021/12/17 05:23:02;;;;;;;25.77;2.92;;;0.30;99.90;;;;;;5085957;27;20564;-55
2021/12/17 05:25:42;;;;;;;42.65;4.10;;;0.30;99.90;;;;;;5147022;27;20543;-55
2021/12/17 05:28:22;;;;;;;32.67;3.97;;;0.30;99.90;;;;;;5086148;27;20557;-55
2021/12/17 05:31:01;;;;;;;49.28;4.90;;;0.30;99.90;;;;;;5106295;27;20529;-55
2021/12/17 05:33:41;;;;;;;44.55;4.28;;;0.30;99.90;;;;;;5086062;28;20660;-54
2021/12/17 05:36:21;;;;;;;28.77;3.30;;;0.30;99.90;;;;;;5085363;28;20555;-55
2021/12/17 05:39:01;;;;;;;42.55;3.97;;;0.30;99.90;;;;;;5085666;27;20535;-55
2021/12/17 05:41:41;;;;;;;12.30;3.33;;;0.30;99.90;;;;;;5084587;28;20687;-55
2021/12/17 05:44:21;;;;;;;19.50;3.63;;;0.30;99.90;;;;;;5147252;27;21198;-56
2021/12/17 05:47:01;;;;;;;25.20;4.53;;;0.30;99.90;;;;;;5086169;27;21134;-55
2021/12/17 05:49:40;;;;;;;44.67;7.30;;;0.30;99.90;;;;;;5086299;28;20644;-55
2021/12/17 05:52:20;;;;;;;64.93;18.08;;;0.30;99.90;;;;;;5148401;27;20546;-55
2021/12/17 05:55:00;;;;;;;31.70;13.82;;;0.30;99.90;;;;;;5147483;27;21062;-55
2021/12/17 05:57:40;;;;;;;52.33;14.65;;;0.30;99.90;;;;;;5086133;28;21181;-55
2021/12/17 06:00:21;;;;;;;50.42;24.23;;;0.30;99.90;;;;;;5082890;28;20688;-55
2021/12/17 06:03:03;;;;;;;45.58;13.98;;;0.40;99.90;;;;;;5146072;27;20673;-55
2021/12/17 06:05:42;;;;;;;49.00;13.10;;;0.40;99.90;;;;;;5085548;28;20684;-54
2021/12/17 06:08:22;;;;;;;45.08;4.90;;;0.40;99.90;;;;;;5086002;27;20535;-55
2021/12/17 06:11:02;;;;;;;36.35;3.83;;;0.40;99.90;;;;;;5086834;27;20540;-54
2021/12/17 06:13:42;;;;;;;26.83;3.58;;;0.40;99.90;;;;;;5106403;27;20538;-54
2021/12/17 06:16:22;;;;;;;13.18;3.72;;;0.40;99.90;;;;;;5106046;27;20662;-55
2021/12/17 06:19:02;;;;;;;21.80;4.25;;;0.40;99.90;;;;;;5086183;27;20580;-55
2021/12/17 06:21:41;;;;;;;29.33;4.70;;;0.40;99.90;;;;;;5086216;28;20675;-55
2021/12/17 06:24:21;;;;;;;16.65;4.20;;;0.40;99.90;;;;;;5086255;27;20535;-55
2021/12/17 06:27:01;;;;;;;20.88;3.50;;;0.50;99.90;;;;;;5086320;27;20585;-55
2021/12/17 06:29:41;;;;;;;20.52;3.80;;;0.50;99.90;;;;;;5148060;27;20657;-55
2021/12/17 06:32:21;;;;;;;36.40;3.83;;;0.50;99.90;;;;;;5085752;28;20660;-55
2021/12/17 06:35:00;;;;;;;10.73;2.72;;;0.50;99.90;;;;;;5105626;27;20545;-55
2021/12/17 06:37:41;;;;;;;32.08;3.95;;;0.50;99.90;;;;;;5165530;27;20969;-55
2021/12/17 06:40:20;;;;;;;20.02;3.30;;;0.50;99.90;;;;;;5084953;27;20540;-55
2021/12/17 06:43:00;;;;;;;26.35;4.30;;;0.50;99.90;;;;;;5084916;27;20963;-55
2021/12/17 06:45:51;;;;;;;28.38;3.95;;;0.50;99.90;;;;;;5121750;27;20544;-54
2021/12/17 06:48:32;;;;;;;30.75;3.72;;;0.50;99.90;;;;;;5084583;27;20954;-55
2021/12/17 07:00:18;;;;;;;9.18;3.55;;;0.50;99.90;;;;;;5147157;27;20539;-56
2021/12/17 07:06:12;;;;;;;28.13;5.38;;;0.60;99.90;;;;;;5086350;27;20699;-55
2021/12/17 07:17:09;;;;;;;35.67;7.78;;;0.60;99.90;;;;;;5086676;28;20656;-54
2021/12/17 07:18:34;;;;;;;45.42;17.08;;;0.60;99.90;;;;;;5147862;27;20616;-55
2021/12/17 07:21:23;;;;;;;49.28;24.55;;;0.50;99.90;;;;;;5086129;27;21018;-56
2021/12/17 07:33:14;;;;;;;45.72;5.18;;;0.50;99.90;;;;;;5147231;27;20653;-55
2021/12/17 07:35:55;;;;;;;19.58;4.63;;;0.60;99.90;;;;;;5085845;27;20540;-55
2021/12/17 07:38:39;;;;;;;32.47;4.80;;;0.60;99.90;;;;;;5147545;27;20649;-55
2021/12/17 07:41:20;;;;;;;34.53;4.82;;;0.60;99.90;;;;;;5147839;27;21055;-55
2021/12/17 07:44:01;;;;;;;36.45;6.38;;;0.60;99.90;;;;;;5104946;27;20867;-54
2021/12/17 07:46:40;;;;;;;20.45;4.43;;;0.60;99.90;;;;;;5127509;27;20560;-56
2021/12/17 07:49:20;;;;;;;34.00;4.78;;;0.60;99.90;;;;;;5126605;27;21080;-55
2021/12/17 07:52:00;;;;;;;25.88;4.93;;;0.60;99.90;;;;;;5086159;27;21021;-55
2021/12/17 07:54:39;;;;;;;24.70;4.50;;;0.60;99.90;;;;;;5085609;28;20660;-55
2021/12/17 07:57:19;;;;;;;38.22;5.07;;;0.80;99.90;;;;;;5147596;27;20546;-56
2021/12/17 07:59:59;;;;;;;20.70;5.03;;;0.80;99.90;;;;;;5106053;27;20541;-55
2021/12/17 08:02:39;;;;;;;21.35;5.22;;;0.90;99.90;;;;;;5086382;27;20565;-55
2021/12/17 08:05:19;;;;;;;28.98;5.38;;;0.90;99.90;;;;;;5147456;27;20543;-56
2021/12/17 08:07:59;;;;;;;24.30;6.45;;;1.00;99.90;;;;;;5086327;28;20589;-55
2021/12/17 08:10:39;;;;;;;27.08;5.03;;;1.10;99.90;;;;;;5086040;27;20561;-56
2021/12/17 08:13:20;;;;;;;15.13;4.82;;;1.20;99.90;;;;;;5086098;27;20545;-54
2021/12/17 08:16:13;;;;;;;17.35;5.70;;;1.20;99.90;;;;;;5085638;27;21084;-55
2021/12/17 08:23:06;;;;;;;14.07;5.13;;;1.20;99.90;;;;;;5147426;27;20662;-55
2021/12/17 08:24:59;;;;;;;16.02;5.55;;;1.10;99.90;;;;;;5085489;27;20562;-55
2021/12/17 08:27:49;;;;;;;18.95;6.55;;;1.20;99.90;;;;;;5098055;27;20620;-55
2021/12/17 08:30:29;;;;;;;12.10;5.97;;;1.30;99.90;;;;;;5128304;27;20688;-55
2021/12/17 08:33:09;;;;;;;9.48;5.78;;;1.40;99.90;;;;;;5085654;28;20668;-55
2021/12/17 08:35:49;;;;;;;10.10;6.22;;;1.40;99.90;;;;;;5147097;27;21145;-55
2021/12/17 08:38:29;;;;;;;6.55;5.95;;;1.50;99.90;;;;;;5105996;27;20678;-56
2021/12/17 08:41:09;;;;;;;5.80;5.35;;;1.50;99.90;;;;;;5086141;27;20547;-55
2021/12/17 08:43:49;;;;;;;6.20;5.60;;;1.60;99.90;;;;;;5085421;28;20667;-54
2021/12/17 08:46:28;;;;;;;6.65;5.18;;;1.60;99.90;;;;;;5126317;27;21080;-55
2021/12/17 08:49:09;;;;;;;5.72;5.22;;;1.70;99.90;;;;;;5147587;27;21185;-55
2021/12/17 08:51:50;;;;;;;7.10;6.45;;;1.70;99.90;;;;;;5105861;27;20549;-55
2021/12/17 08:54:30;;;;;;;6.25;5.75;;;1.70;99.90;;;;;;5085434;28;20613;-55
2021/12/17 08:57:09;;;;;;;5.72;5.18;;;1.70;99.90;;;;;;5085436;28;21213;-55
2021/12/17 08:59:49;;;;;;;6.78;6.07;;;1.80;99.90;;;;;;5085516;28;20680;-55
2021/12/17 09:02:29;;;;;;;5.03;4.63;;;1.80;99.90;;;;;;5085335;27;20552;-55
2021/12/17 09:05:10;;;;;;;4.93;4.53;;;1.90;99.90;;;;;;5126652;27;20544;-55
2021/12/17 09:08:02;;;;;;;6.35;5.68;;;2.00;99.90;;;;;;5106514;27;20976;-54
2021/12/17 09:10:44;;;;;;;5.10;4.70;;;2.00;99.90;;;;;;5106850;27;20674;-55
2021/12/17 09:13:25;;;;;;;6.18;5.60;;;2.20;99.90;;;;;;5085930;28;20676;-55
2021/12/17 09:16:06;;;;;;;5.95;5.45;;;2.20;99.90;;;;;;5106774;27;20557;-53
2021/12/17 09:18:46;;;;;;;5.55;5.15;;;2.20;99.90;;;;;;5106227;27;20526;-55
2021/12/17 09:21:26;;;;;;;5.38;4.97;;;2.40;99.90;;;;;;5085931;28;20664;-55
2021/12/17 09:24:06;;;;;;;5.72;5.30;;;2.40;99.90;;;;;;5106102;27;20673;-55
2021/12/17 09:26:45;;;;;;;6.15;5.57;;;2.30;99.90;;;;;;5147346;27;20570;-55
2021/12/17 09:29:27;;;;;;;5.88;5.45;;;2.10;99.90;;;;;;5086113;27;20583;-55
2021/12/17 09:32:07;;;;;;;5.75;5.30;;;2.10;99.90;;;;;;5086246;27;20551;-55
2021/12/17 09:34:46;;;;;;;5.05;4.65;;;2.20;99.90;;;;;;5147127;27;20673;-55
2021/12/17 09:37:27;;;;;;;5.18;4.75;;;2.20;99.90;;;;;;5086578;28;20675;-56
2021/12/17 09:40:10;;;;;;;5.57;5.07;;;2.10;99.90;;;;;;5085985;28;21044;-55
2021/12/17 09:42:50;;;;;;;5.63;5.22;;;2.10;99.90;;;;;;5086514;27;20535;-55
2021/12/17 09:45:29;;;;;;;5.53;5.13;;;2.10;99.90;;;;;;5084959;28;21208;-54
2021/12/17 09:48:09;;;;;;;5.22;4.80;;;2.00;99.90;;;;;;5086352;28;20652;-55
2021/12/17 09:50:49;;;;;;;6.13;5.63;;;2.00;99.90;;;;;;5085871;27;20535;-55
2021/12/17 09:53:29;;;;;;;6.10;5.63;;;2.00;99.90;;;;;;5086168;28;20660;-55
2021/12/17 09:56:08;;;;;;;5.75;5.32;;;2.00;99.90;;;;;;5105986;27;20697;-55
2021/12/17 09:58:48;;;;;;;6.60;6.10;;;2.00;99.90;;;;;;5127466;27;20601;-55
2021/12/17 10:01:29;;;;;;;6.35;5.85;;;2.20;99.90;;;;;;5147837;27;21143;-55
2021/12/17 10:04:16;;;;;;;6.63;6.13;;;2.30;99.90;;;;;;5085756;27;20553;-54
2021/12/17 10:07:20;;;;;;;6.85;6.30;;;2.40;99.90;;;;;;5086240;27;20556;-54
2021/12/17 10:10:01;;;;;;;6.35;5.85;;;2.60;99.90;;;;;;5147551;27;20661;-54
2021/12/17 10:12:41;;;;;;;6.60;6.10;;;2.60;99.90;;;;;;5161127;27;20741;-55
2021/12/17 10:15:22;;;;;;;6.47;5.97;;;2.80;99.90;;;;;;5106496;27;20954;-55
2021/12/17 10:18:03;;;;;;;6.75;6.25;;;2.80;99.90;;;;;;5086048;27;20547;-54
2021/12/17 10:20:58;;;;;;;6.32;5.82;;;2.80;99.90;;;;;;5105779;27;20545;-55
2021/12/17 10:23:42;;;;;;;6.95;6.45;;;2.90;99.90;;;;;;5086040;27;20668;-54
2021/12/17 10:26:24;;;;;;;7.07;6.57;;;2.80;99.90;;;;;;5147078;27;20658;-55
2021/12/17 10:29:05;;;;;;;7.72;7.13;;;2.80;99.90;;;;;;5086328;28;20543;-55
2021/12/17 10:31:56;;;;;;;6.55;5.95;;;2.70;99.90;;;;;;5147404;27;20669;-56
2021/12/17 10:34:36;;;;;;;7.57;6.97;;;2.60;99.90;;;;;;5085729;28;20668;-54
2021/12/17 10:37:32;;;;;;;7.25;6.75;;;2.70;99.90;;;;;;5086412;28;20605;-54
2021/12/17 10:40:24;;;;;;;7.78;7.05;;;2.80;99.90;;;;;;5106709;27;21082;-54
2021/12/17 10:43:15;;;;;;;7.53;6.85;;;3.10;99.90;;;;;;5081767;28;20700;-54
2021/12/17 10:46:01;;;;;;;8.45;7.78;;;3.30;99.90;;;;;;5117170;27;20576;-55
2021/12/17 10:48:52;;;;;;;7.93;7.22;;;3.30;99.90;;;;;;5147267;27;20653;-55
2021/12/17 10:51:45;;;;;;;8.25;7.45;;;3.30;99.90;;;;;;5106198;27;20530;-54
2021/12/17 10:54:24;;;;;;;8.05;7.35;;;3.40;99.90;;;;;;5085679;27;20535;-55
2021/12/17 10:57:08;;;;;;;8.98;8.20;;;3.50;99.90;;;;;;5085767;28;20675;-54
2021/12/17 10:59:48;;;;;;;9.27;8.45;;;3.60;99.90;;;;;;5085970;28;20672;-54
2021/12/17 11:02:33;;;;;;;8.50;7.80;;;3.70;99.90;;;;;;5085756;27;21060;-55
2021/12/17 11:05:14;;;;;;;9.25;8.45;;;3.80;99.90;;;;;;5085608;27;20532;-55
2021/12/17 11:07:54;;;;;;;8.77;8.07;;;3.90;99.90;;;;;;5085543;28;20660;-54
2021/12/17 11:10:35;;;;;;;7.78;7.15;;;3.90;99.90;;;;;;5085984;28;20675;-54
2021/12/17 11:13:18;;;;;;;8.15;7.55;;;4.00;99.90;;;;;;5125850;27;20540;-54
2021/12/17 11:15:57;;;;;;;8.40;7.70;;;4.10;99.90;;;;;;5146624;27;20665;-55
2021/12/17 11:18:37;;;;;;;7.82;7.22;;;4.10;99.90;;;;;;5106311;27;20654;-54
2021/12/17 11:21:17;;;;;;;9.27;8.15;;;4.10;99.90;;;;;;5106037;27;20534;-55
2021/12/17 11:23:57;;;;;;;7.85;7.15;;;4.00;99.90;;;;;;5126571;27;21156;-54
2021/12/17 11:26:36;;;;;;;7.40;6.68;;;3.90;99.90;;;;;;5085235;27;20574;-54
2021/12/17 11:29:17;;;;;;;8.68;7.88;;;3.80;99.90;;;;;;5106491;27;20546;-54
2021/12/17 11:32:00;;;;;;;8.13;7.43;;;3.70;99.90;;;;;;5104539;27;20534;-55
2021/12/17 11:34:42;;;;;;;10.05;8.18;;;3.70;99.90;;;;;;5085680;28;21197;-54
2021/12/17 11:37:23;;;;;;;11.70;8.02;;;3.70;99.90;;;;;;5086050;28;20687;-55
2021/12/17 11:40:07;;;;;;;7.47;6.88;;;3.50;99.90;;;;;;5086142;28;20664;-55
2021/12/17 11:43:05;;;;;;;6.65;6.10;;;3.50;99.90;;;;;;5085905;28;20660;-54
2021/12/17 11:45:56;;;;;;;8.23;7.53;;;3.50;99.90;;;;;;5085365;28;20704;-55
2021/12/17 11:48:36;;;;;;;6.95;6.45;;;3.50;99.90;;;;;;5086083;27;20532;-55
2021/12/17 11:51:18;;;;;;;7.53;6.93;;;3.50;99.90;;;;;;5085986;27;20569;-55
2021/12/17 11:54:03;;;;;;;7.43;6.80;;;3.60;99.90;;;;;;5086053;27;20540;-55
2021/12/17 11:56:45;;;;;;;6.90;6.32;;;3.60;99.90;;;;;;5085790;27;20691;-54
2021/12/17 11:59:40;;;;;;;7.55;6.95;;;3.60;99.90;;;;;;5085805;27;20539;-55
2021/12/17 12:02:22;;;;;;;6.43;5.93;;;3.60;99.90;;;;;;5086104;28;20684;-55
2021/12/17 12:05:03;;;;;;;6.80;6.20;;;3.60;99.90;;;;;;5085585;27;20543;-55
2021/12/17 12:07:42;;;;;;;8.07;7.47;;;3.60;99.90;;;;;;5069997;27;20576;-55
2021/12/17 12:10:23;;;;;;;7.60;7.00;;;3.60;99.90;;;;;;5066470;27;20563;-54
2021/12/17 12:13:05;;;;;;;8.50;7.75;;;3.60;99.90;;;;;;5060847;28;20698;-55
2021/12/17 12:15:43;;;;;;;8.70;7.60;;;3.60;99.90;;;;;;5105780;27;20658;-56
2021/12/17 12:18:23;;;;;;;8.02;7.32;;;3.50;99.90;;;;;;5105888;27;20550;-55
2021/12/17 12:21:03;;;;;;;7.30;6.60;;;3.40;99.90;;;;;;5085699;27;20535;-55
2021/12/17 12:23:49;;;;;;;6.45;5.85;;;3.30;99.90;;;;;;5085868;27;20584;-54
2021/12/17 12:26:37;;;;;;;6.28;5.78;;;3.20;99.90;;;;;;5096621;27;20551;-55
2021/12/17 12:29:22;;;;;;;5.28;4.88;;;3.20;99.90;;;;;;5084765;27;20531;-55
2021/12/17 12:32:13;;;;;;;6.07;5.57;;;3.30;99.90;;;;;;5083778;27;20965;-55
2021/12/17 12:35:08;;;;;;;5.45;5.05;;;3.40;99.90;;;;;;5084311;27;20536;-55
2021/12/17 12:38:15;;;;;;;6.00;5.60;;;3.40;99.90;;;;;;5145330;27;21071;-55
2021/12/17 12:40:57;;;;;;;7.10;6.57;;;3.20;99.90;;;;;;5145591;27;20539;-55
2021/12/17 12:43:38;;;;;;;5.55;5.05;;;3.10;99.90;;;;;;5074857;27;20557;-55
2021/12/17 12:46:50;;;;;;;5.75;5.35;;;3.10;99.90;;;;;;5085211;27;20565;-53
2021/12/17 12:49:47;;;;;;;5.28;4.88;;;3.20;99.90;;;;;;5086473;27;20532;-54
2021/12/17 12:52:33;;;;;;;6.03;5.53;;;3.30;99.90;;;;;;5126823;27;20559;-56
2021/12/17 12:55:19;;;;;;;5.85;5.35;;;3.30;99.90;;;;;;5127210;27;21008;-54
2021/12/17 12:58:06;;;;;;;5.70;5.30;;;3.50;99.90;;;;;;5086116;28;20668;-55
2021/12/17 13:00:49;;;;;;;5.45;4.95;;;3.50;99.90;;;;;;5147662;27;20653;-54
2021/12/17 13:03:32;;;;;;;5.43;5.03;;;3.50;99.90;;;;;;5126829;27;20537;-54
2021/12/17 13:06:16;;;;;;;6.15;5.75;;;3.50;99.90;;;;;;5147172;27;20547;-55
2021/12/17 13:08:57;;;;;;;5.90;5.40;;;3.50;99.90;;;;;;5086090;27;20668;-55
2021/12/17 13:11:45;;;;;;;6.00;5.57;;;3.60;99.90;;;;;;5126988;27;21080;-55
2021/12/17 13:14:27;;;;;;;6.40;5.82;;;3.60;99.90;;;;;;5106160;27;20541;-55
2021/12/17 13:17:40;;;;;;;6.80;6.30;;;3.70;99.90;;;;;;5086002;27;20551;-54
2021/12/17 13:20:41;;;;;;;6.68;6.18;;;3.80;99.90;;;;;;5085867;28;20691;-54
2021/12/17 13:23:19;;;;;;;6.22;5.72;;;3.90;99.90;;;;;;5146869;27;20657;-54
2021/12/17 13:26:04;;;;;;;6.40;5.90;;;3.80;99.90;;;;;;5084409;27;20581;-55
2021/12/17 13:28:56;;;;;;;6.25;5.75;;;3.90;99.90;;;;;;5145663;27;21210;-53
2021/12/17 13:31:39;;;;;;;6.57;6.07;;;4.00;99.90;;;;;;5085248;27;20680;-54
2021/12/17 13:34:37;;;;;;;6.53;6.03;;;4.00;99.90;;;;;;5139064;27;20659;-55
2021/12/17 13:37:20;;;;;;;5.82;5.40;;;4.00;99.90;;;;;;5070013;28;20693;-55
2021/12/17 13:40:04;;;;;;;6.57;6.07;;;4.00;99.90;;;;;;5138988;27;20687;-55
2021/12/17 13:42:46;;;;;;;6.78;6.18;;;4.10;99.90;;;;;;5085486;27;20547;-55
2021/12/17 13:45:25;;;;;;;6.20;5.70;;;4.10;99.90;;;;;;5126337;27;20535;-55
2021/12/17 13:48:06;;;;;;;6.63;6.13;;;4.00;99.90;;;;;;5147804;27;20580;-55
2021/12/17 13:50:46;;;;;;;6.65;6.15;;;4.00;99.90;;;;;;5127266;27;20540;-54
2021/12/17 13:53:26;;;;;;;6.90;6.28;;;4.00;99.90;;;;;;5147184;27;20546;-55
2021/12/17 13:56:06;;;;;;;6.53;6.03;;;4.00;99.90;;;;;;5106061;27;20677;-55
2021/12/17 13:58:46;;;;;;;6.85;6.25;;;3.90;99.90;;;;;;5086247;27;20528;-55
2021/12/17 14:01:26;;;;;;;7.40;6.25;;;3.90;99.90;;;;;;5077900;27;20595;-56
2021/12/17 14:04:14;;;;;;;6.65;6.15;;;3.90;99.90;;;;;;5074550;27;20567;-55
2021/12/17 14:06:54;;;;;;;6.70;6.10;;;3.90;99.90;;;;;;5129735;27;21226;-55
2021/12/17 14:09:34;;;;;;;7.25;6.65;;;3.80;99.90;;;;;;5105741;27;21323;-54
2021/12/17 14:12:31;;;;;;;7.97;7.38;;;3.80;99.90;;;;;;5094265;28;20674;-55
2021/12/17 14:15:12;;;;;;;7.72;7.13;;;3.70;99.90;;;;;;5126454;27;20540;-55
2021/12/17 14:17:56;;;;;;;7.20;6.70;;;3.70;99.90;;;;;;5126087;27;20580;-55
2021/12/17 14:20:41;;;;;;;7.60;7.00;;;3.70;99.90;;;;;;5116299;27;20569;-56
2021/12/17 14:23:23;;;;;;;9.10;8.27;;;3.60;99.90;;;;;;5155714;27;21057;-54
2021/12/17 14:26:06;;;;;;;8.00;7.40;;;3.60;99.90;;;;;;5146723;27;20681;-54
2021/12/17 14:28:46;;;;;;;8.30;7.50;;;3.60;99.90;;;;;;5142570;27;20538;-54
2021/12/17 14:31:26;;;;;;;8.10;7.50;;;3.50;99.90;;;;;;5084905;28;20535;-55
2021/12/17 14:34:06;;;;;;;7.65;7.10;;;3.50;99.90;;;;;;5057705;27;20699;-55
2021/12/17 14:36:45;;;;;;;8.95;8.13;;;3.40;99.90;;;;;;5146940;27;21396;-55
2021/12/17 14:39:33;;;;;;;8.30;7.70;;;3.40;99.90;;;;;;5160140;27;20541;-55
2021/12/17 14:42:29;;;;;;;8.02;7.43;;;3.40;99.90;;;;;;5076329;28;20665;-56
2021/12/17 14:45:14;;;;;;;8.20;7.70;;;3.30;99.90;;;;;;5114027;27;20544;-55
2021/12/17 14:47:58;;;;;;;8.30;7.60;;;3.30;99.90;;;;;;5085296;28;20672;-55
2021/12/17 15:02:52;;;;;;;9.07;8.38;;;2.90;99.90;;;;;;5084453;27;20563;-55
2021/12/17 15:05:32;;;;;;;8.27;7.68;;;2.90;99.90;;;;;;5065198;27;20556;-54
2021/12/17 15:08:13;;;;;;;7.22;6.72;;;2.80;99.90;;;;;;5085981;28;20664;-54
2021/12/17 15:10:53;;;;;;;7.90;7.38;;;2.80;99.90;;;;;;5086007;27;20535;-55
2021/12/17 15:13:32;;;;;;;7.47;6.95;;;2.80;99.90;;;;;;5126182;27;21088;-55
2021/12/17 15:16:12;;;;;;;8.93;8.32;;;2.80;99.90;;;;;;5078416;28;21214;-54
2021/12/17 15:18:52;;;;;;;7.75;7.15;;;2.70;99.90;;;;;;5084436;28;20684;-54
2021/12/17 15:21:32;;;;;;;7.97;7.38;;;2.70;99.90;;;;;;5105105;27;20546;-54
2021/12/17 15:24:12;;;;;;;7.15;6.55;;;2.70;99.90;;;;;;5105974;27;20580;-55
2021/12/17 15:26:51;;;;;;;8.43;7.82;;;2.70;99.90;;;;;;5073179;28;21054;-56
2021/12/17 15:29:31;;;;;;;8.27;7.78;;;2.70;99.90;;;;;;5084841;27;21033;-55
2021/12/17 15:32:12;;;;;;;7.72;7.22;;;2.80;99.90;;;;;;5078171;27;20579;-56
2021/12/17 15:34:52;;;;;;;8.40;7.80;;;2.80;99.90;;;;;;5105962;27;20677;-56
2021/12/17 15:37:31;;;;;;;7.60;7.10;;;2.80;99.90;;;;;;5147024;27;20555;-56
2021/12/17 15:40:12;;;;;;;7.85;7.07;;;2.80;99.90;;;;;;5086197;27;20539;-54
2021/12/17 15:42:53;;;;;;;7.70;7.10;;;2.80;99.90;;;;;;5147112;27;20657;-56
2021/12/17 15:45:33;;;;;;;8.00;7.40;;;2.80;99.90;;;;;;5084360;28;20671;-56
2021/12/17 15:48:14;;;;;;;7.40;6.25;;;2.80;99.90;;;;;;5124592;27;20566;-56
2021/12/17 15:50:53;;;;;;;7.65;7.10;;;2.80;99.90;;;;;;5086016;27;20561;-57
2021/12/17 15:53:33;;;;;;;7.95;7.32;;;2.80;99.90;;;;;;5105958;27;20545;-56
2021/12/17 15:56:13;;;;;;;9.35;8.55;;;2.80;99.90;;;;;;5085612;27;20547;-56
2021/12/17 15:58:53;;;;;;;9.23;8.43;;;2.80;99.90;;;;;;5147247;27;20415;-56
2021/12/17 16:01:32;;;;;;;9.82;9.05;;;2.80;99.90;;;;;;5145351;27;20669;-56
2021/12/17 16:04:13;;;;;;;8.73;8.13;;;2.80;99.90;;;;;;5083167;27;20456;-57
2021/12/17 16:06:52;;;;;;;15.10;13.85;;;2.80;99.90;;;;;;5141147;27;20685;-56
2021/12/17 16:18:41;;;;;;;9.07;8.38;;;2.80;99.90;;;;;;5082798;28;20695;-56
2021/12/17 16:21:20;;;;;;;8.77;8.18;;;2.80;99.90;;;;;;5085537;28;20675;-56
2021/12/17 16:24:00;;;;;;;8.98;8.38;;;2.80;99.90;;;;;;5085822;28;20703;-56
2021/12/17 16:26:40;;;;;;;9.80;9.10;;;2.80;99.90;;;;;;5073657;28;21036;-56
2021/12/17 16:29:19;;;;;;;8.35;7.68;;;2.80;99.90;;;;;;5085427;27;21089;-56
2021/12/17 16:31:59;;;;;;;7.25;6.75;;;2.80;99.90;;;;;;5084852;27;20535;-56
2021/12/17 16:34:40;;;;;;;8.13;7.35;;;2.80;99.90;;;;;;5064628;27;20611;-56
2021/12/17 16:37:21;;;;;;;8.15;7.45;;;2.80;99.90;;;;;;5110326;27;20697;-56
2021/12/17 16:40:01;;;;;;;7.47;6.97;;;2.80;99.90;;;;;;5085693;28;20663;-56